createdAt,value
2022-11-24T00:01:33.550Z,5.19
2022-11-24T00:04:36.472Z,5.19
2022-11-24T00:07:39.242Z,5.19
2022-11-24T00:10:42.532Z,5.20
2022-11-24T00:13:46.390Z,5.20
2022-11-24T00:16:50.645Z,5.19
2022-11-24T00:19:54.330Z,5.18
2022-11-24T00:22:57.236Z,5.19
2022-11-24T00:26:14.438Z,5.18
2022-11-24T00:29:18.628Z,5.17
2022-11-24T00:32:21.387Z,5.18
2022-11-24T00:35:24.440Z,5.19
2022-11-24T00:38:27.572Z,5.19
2022-11-24T00:41:31.556Z,5.19
2022-11-24T00:44:35.762Z,5.18
2022-11-24T00:47:39.616Z,5.18
2022-11-24T00:50:42.631Z,5.17
2022-11-24T00:53:46.375Z,5.16
2022-11-24T00:56:49.363Z,5.15
2022-11-24T00:59:52.435Z,5.16
2022-11-24T01:02:55.423Z,5.16
2022-11-24T01:06:06.300Z,5.13
2022-11-24T01:09:11.480Z,5.14
2022-11-24T01:12:14.539Z,5.12
2022-11-24T01:15:17.253Z,5.14
2022-11-24T01:18:23.213Z,5.14
2022-11-24T01:21:26.191Z,5.14
2022-11-24T01:24:29.676Z,5.13
2022-11-24T01:27:32.351Z,5.10
2022-11-24T01:30:35.191Z,5.13
2022-11-24T01:33:38.708Z,5.12
2022-11-24T01:36:41.695Z,5.11
2022-11-24T01:39:44.412Z,5.12
2022-11-24T01:42:50.432Z,5.11
2022-11-24T01:45:54.423Z,5.07
2022-11-24T01:49:18.068Z,5.06
2022-11-24T01:52:30.457Z,5.08
2022-11-24T01:55:37.805Z,5.06
2022-11-24T01:58:43.027Z,5.08
2022-11-24T02:01:48.959Z,5.07
2022-11-24T02:04:52.398Z,5.05
2022-11-24T02:07:59.216Z,5.05
2022-11-24T02:11:04.958Z,5.04
2022-11-24T02:14:15.764Z,5.02
2022-11-24T02:17:18.769Z,5.00
2022-11-24T02:20:22.575Z,5.00
2022-11-24T02:23:36.989Z,5.04
2022-11-24T02:26:46.051Z,5.02
2022-11-24T02:29:49.472Z,5.04
2022-11-24T02:32:54.396Z,5.04
2022-11-24T02:35:58.622Z,5.05
2022-11-24T02:39:01.680Z,5.04
2022-11-24T02:42:12.339Z,5.05
2022-11-24T02:45:16.828Z,5.04
2022-11-24T02:48:19.462Z,5.05
2022-11-24T02:51:23.380Z,5.06
2022-11-24T02:54:27.028Z,5.04
2022-11-24T02:57:29.913Z,5.02
2022-11-24T03:00:32.922Z,5.04
2022-11-24T03:03:36.310Z,5.04
2022-11-24T03:06:39.297Z,5.03
2022-11-24T03:09:42.668Z,5.02
2022-11-24T03:12:45.707Z,4.98
2022-11-24T03:15:49.449Z,4.97
2022-11-24T03:18:53.983Z,4.94
2022-11-24T03:21:57.094Z,4.92
2022-11-24T03:25:00.427Z,4.92
2022-11-24T03:28:04.077Z,4.90
2022-11-24T03:31:08.320Z,4.86
2022-11-24T03:34:12.191Z,4.85
2022-11-24T03:37:15.051Z,4.75
2022-11-24T03:40:18.385Z,4.81
2022-11-24T03:43:21.507Z,4.82
2022-11-24T03:46:24.235Z,4.79
2022-11-24T03:49:27.145Z,4.77
2022-11-24T03:52:32.772Z,4.75
2022-11-24T03:55:35.891Z,4.72
2022-11-24T03:58:39.073Z,4.71
2022-11-24T04:01:43.235Z,4.71
2022-11-24T04:04:50.649Z,4.70
2022-11-24T04:07:57.744Z,4.69
2022-11-24T04:11:01.424Z,4.69
2022-11-24T04:14:13.331Z,4.70
2022-11-24T04:17:29.583Z,4.69
2022-11-24T04:20:32.497Z,4.69
2022-11-24T04:23:35.278Z,4.68
2022-11-24T04:26:39.233Z,4.68
2022-11-24T04:29:42.964Z,4.63
2022-11-24T04:32:46.217Z,4.63
2022-11-24T04:35:53.525Z,4.59
2022-11-24T04:39:25.614Z,4.60
2022-11-24T04:42:21.505Z,4.57
2022-11-24T04:45:28.276Z,4.57
2022-11-24T04:48:32.803Z,4.56
2022-11-24T04:51:45.353Z,4.53
2022-11-24T04:54:49.361Z,4.53
2022-11-24T04:57:52.094Z,4.47
2022-11-24T05:00:55.030Z,4.47
2022-11-24T05:03:58.726Z,4.45
2022-11-24T05:07:02.059Z,4.45
2022-11-24T05:10:25.019Z,4.43
2022-11-24T05:13:35.967Z,4.44
2022-11-24T05:16:38.935Z,4.34
2022-11-24T05:19:43.156Z,4.42
2022-11-24T05:22:51.573Z,4.41
2022-11-24T05:25:55.494Z,4.40
2022-11-24T05:29:00.357Z,4.39
2022-11-24T05:32:03.703Z,4.39
2022-11-24T05:35:09.894Z,4.40
2022-11-24T05:38:14.297Z,4.40
2022-11-24T05:41:17.168Z,4.40
2022-11-24T05:44:21.113Z,4.36
2022-11-24T05:47:34.389Z,4.32
2022-11-24T05:50:41.219Z,4.31
2022-11-24T05:53:52.410Z,4.37
2022-11-24T05:57:01.635Z,4.39
2022-11-24T06:00:14.208Z,4.40
2022-11-24T06:03:21.117Z,4.41
2022-11-24T06:06:24.410Z,4.44
2022-11-24T06:09:28.514Z,4.44
2022-11-24T06:12:33.251Z,4.42
2022-11-24T06:15:42.817Z,4.46
2022-11-24T06:18:48.636Z,4.48
2022-11-24T06:21:52.042Z,4.53
2022-11-24T06:24:54.724Z,4.54
2022-11-24T06:27:58.223Z,4.56
2022-11-24T06:31:05.490Z,4.57
2022-11-24T06:34:11.691Z,4.61
2022-11-24T06:37:18.991Z,4.62
2022-11-24T06:40:26.253Z,4.61
2022-11-24T06:43:30.725Z,4.62
2022-11-24T06:46:34.633Z,4.66
2022-11-24T06:49:37.729Z,4.67
2022-11-24T06:52:41.062Z,4.68
2022-11-24T06:55:45.376Z,4.70
2022-11-24T06:58:53.599Z,4.71
2022-11-24T07:01:58.590Z,4.72
2022-11-24T07:05:08.379Z,4.75
2022-11-24T07:08:17.602Z,4.75
2022-11-24T07:11:23.639Z,4.76
2022-11-24T07:14:28.236Z,4.75
2022-11-24T07:17:43.240Z,4.77
2022-11-24T07:20:48.343Z,4.78
2022-11-24T07:23:58.230Z,4.81
2022-11-24T07:27:01.300Z,4.85
2022-11-24T07:30:07.750Z,4.89
2022-11-24T07:33:12.195Z,4.93
2022-11-24T07:36:17.490Z,5.00
2022-11-24T07:39:21.257Z,5.07
2022-11-24T07:42:24.499Z,5.13
2022-11-24T07:45:29.646Z,5.15
2022-11-24T07:48:34.789Z,5.20
2022-11-24T07:51:44.349Z,5.22
2022-11-24T07:54:47.657Z,5.21
2022-11-24T07:57:55.635Z,5.21
2022-11-24T08:01:01.449Z,5.23
2022-11-24T08:04:07.164Z,5.24
2022-11-24T08:07:15.537Z,5.27
2022-11-24T08:10:19.919Z,5.26
2022-11-24T08:13:26.418Z,5.36
2022-11-24T08:16:29.589Z,5.43
2022-11-24T08:19:34.522Z,5.49
2022-11-24T08:22:39.270Z,5.52
2022-11-24T08:25:43.911Z,5.60
2022-11-24T08:28:48.173Z,5.68
2022-11-24T08:31:52.717Z,5.74
2022-11-24T08:35:08.570Z,5.86
2022-11-24T08:38:19.833Z,5.93
2022-11-24T08:41:25.205Z,5.99
2022-11-24T08:44:30.424Z,6.10
2022-11-24T08:47:34.609Z,6.12
2022-11-24T08:50:37.664Z,6.10
2022-11-24T08:53:42.237Z,6.08
2022-11-24T08:56:49.986Z,6.13
2022-11-24T08:59:53.532Z,6.17
2022-11-24T09:03:03.778Z,6.22
2022-11-24T09:06:09.098Z,6.24
2022-11-24T09:09:12.478Z,6.25
2022-11-24T09:12:17.583Z,6.30
2022-11-24T09:15:20.913Z,6.28
2022-11-24T09:18:29.915Z,6.28
2022-11-24T09:21:39.929Z,6.26
2022-11-24T09:24:43.451Z,6.23
2022-11-24T09:27:47.261Z,6.19
2022-11-24T09:30:53.425Z,6.15
2022-11-24T09:34:00.606Z,6.21
2022-11-24T09:37:04.542Z,6.21
2022-11-24T10:01:18.908Z,6.82
2022-11-24T10:04:28.452Z,6.82
2022-11-24T10:08:04.899Z,6.13
2022-11-24T10:11:15.008Z,6.07
2022-11-24T10:14:39.117Z,6.06
2022-11-24T10:18:04.186Z,6.06
2022-11-24T10:21:31.924Z,6.06
2022-11-24T10:24:56.701Z,6.07
2022-11-24T10:28:06.869Z,6.08
2022-11-24T10:31:24.743Z,6.15
2022-11-24T10:34:38.807Z,6.22
2022-11-24T10:38:08.146Z,6.33
2022-11-24T10:41:21.007Z,6.49
2022-11-24T10:44:24.818Z,6.67
2022-11-24T10:47:31.910Z,6.86
2022-11-24T10:50:41.955Z,7.01
2022-11-24T10:53:46.244Z,7.15
2022-11-24T10:56:53.612Z,7.27
2022-11-24T11:00:02.095Z,7.33
2022-11-24T11:03:18.922Z,7.41
2022-11-24T11:06:25.276Z,7.48
2022-11-24T11:09:40.834Z,7.53
2022-11-24T11:12:45.057Z,7.54
2022-11-24T11:15:52.203Z,7.53
2022-11-24T11:18:56.734Z,7.50
2022-11-24T11:22:03.946Z,7.55
2022-11-24T11:25:10.076Z,7.58
2022-11-24T11:28:29.039Z,7.64
2022-11-24T11:31:35.471Z,7.74
2022-11-24T11:34:42.417Z,7.81
2022-11-24T11:37:47.897Z,7.84
2022-11-24T11:40:54.304Z,7.90
2022-11-24T11:44:22.673Z,8.04
2022-11-24T11:48:01.588Z,8.11
2022-11-24T11:51:26.131Z,8.17
2022-11-24T11:54:46.124Z,8.14
2022-11-24T11:58:12.954Z,8.03
2022-11-24T12:01:35.762Z,7.98
2022-11-24T12:04:47.827Z,7.98
2022-11-24T12:08:21.515Z,7.91
2022-11-24T12:11:44.898Z,7.90
2022-11-24T12:14:59.355Z,7.92
2022-11-24T12:18:57.161Z,7.90
2022-11-24T12:22:15.897Z,7.82
2022-11-24T12:25:32.858Z,7.75
2022-11-24T12:29:14.250Z,7.60
2022-11-24T12:32:58.600Z,7.41
2022-11-24T12:36:21.928Z,7.23
2022-11-24T12:39:41.824Z,7.13
2022-11-24T12:43:20.953Z,7.02
2022-11-24T12:46:27.986Z,6.99
2022-11-24T12:50:11.737Z,7.04
2022-11-24T12:53:22.932Z,7.14
2022-11-24T12:56:38.843Z,7.20
2022-11-24T13:00:01.852Z,7.21
2022-11-24T13:03:26.946Z,7.24
2022-11-24T13:06:55.787Z,7.17
2022-11-24T13:14:27.853Z,7.03
2022-11-24T13:17:52.461Z,7.00
2022-11-24T13:20:58.691Z,6.98
2022-11-24T13:24:05.023Z,6.95
2022-11-24T13:27:26.792Z,7.02
2022-11-24T13:30:34.719Z,7.04
2022-11-24T13:33:40.034Z,7.05
2022-11-24T13:36:53.715Z,7.06
2022-11-24T13:40:03.242Z,7.06
2022-11-24T13:43:07.761Z,7.06
2022-11-24T13:46:14.331Z,7.08
2022-11-24T13:49:20.820Z,7.10
2022-11-24T13:52:38.750Z,7.11
2022-11-24T13:55:56.591Z,7.11
2022-11-24T13:59:19.450Z,7.07
2022-11-24T14:02:26.884Z,7.06
2022-11-24T14:05:39.140Z,7.05
2022-11-24T14:08:48.961Z,7.03
2022-11-24T14:12:17.892Z,7.06
2022-11-24T14:15:29.810Z,7.06
2022-11-24T14:18:36.311Z,7.07
2022-11-24T14:21:46.883Z,7.05
2022-11-24T14:24:56.746Z,7.02
2022-11-24T14:28:25.821Z,6.99
2022-11-24T14:31:30.708Z,6.95
2022-11-24T14:34:38.328Z,6.90
2022-11-24T14:37:46.752Z,6.88
2022-11-24T14:40:55.144Z,6.83
2022-11-24T14:44:15.026Z,6.79
2022-11-24T14:47:46.930Z,6.76
2022-11-24T14:50:50.922Z,6.71
2022-11-24T14:54:20.931Z,6.67
2022-11-24T14:57:37.961Z,6.64
2022-11-24T15:00:44.931Z,6.59
2022-11-24T15:04:39.355Z,6.55
2022-11-24T15:07:48.815Z,6.48
2022-11-24T15:11:03.330Z,6.45
2022-11-24T15:14:34.299Z,6.40
2022-11-24T15:17:48.736Z,6.34
2022-11-24T15:20:58.926Z,6.26
2022-11-24T15:24:18.962Z,6.26
2022-11-24T15:27:28.633Z,6.27
2022-11-24T15:30:36.156Z,6.21
2022-11-24T15:33:42.540Z,6.17
2022-11-24T15:36:46.971Z,6.09
2022-11-24T15:39:57.796Z,6.02
2022-11-24T15:43:42.286Z,5.94
2022-11-24T15:46:54.804Z,5.82
2022-11-24T15:50:06.701Z,5.72
2022-11-24T15:53:21.782Z,5.61
2022-11-24T15:56:33.205Z,5.57
2022-11-24T15:59:38.820Z,5.53
2022-11-24T16:02:42.310Z,5.46
2022-11-24T16:05:58.757Z,5.35
2022-11-24T16:09:03.886Z,5.44
2022-11-24T16:12:08.766Z,5.42
2022-11-24T16:15:14.931Z,5.37
2022-11-24T16:18:25.781Z,5.29
2022-11-24T16:21:38.729Z,5.19
2022-11-24T16:24:49.783Z,5.19
2022-11-24T16:27:58.859Z,5.18
2022-11-24T16:31:16.506Z,5.19
2022-11-24T16:34:36.984Z,5.15
2022-11-24T16:37:51.059Z,5.13
2022-11-24T16:40:58.589Z,5.13
2022-11-24T16:44:06.997Z,5.06
2022-11-24T16:47:14.710Z,5.03
2022-11-24T16:50:18.877Z,4.90
2022-11-24T16:53:28.758Z,4.67
2022-11-24T16:56:47.308Z,4.58
2022-11-24T17:00:10.786Z,4.43
2022-11-24T17:03:17.578Z,4.29
2022-11-24T17:06:27.985Z,4.21
2022-11-24T17:09:40.612Z,4.16
2022-11-24T17:12:51.776Z,4.12
2022-11-24T17:15:55.695Z,4.03
2022-11-24T17:19:13.057Z,3.97
2022-11-24T17:22:18.213Z,3.92
2022-11-24T17:25:25.071Z,3.93
2022-11-24T17:28:30.729Z,3.95
2022-11-24T17:31:50.140Z,3.95
2022-11-24T17:34:53.677Z,3.96
2022-11-24T17:37:58.995Z,3.93
2022-11-24T17:41:17.698Z,3.93
2022-11-24T17:44:29.050Z,3.93
2022-11-24T17:47:39.663Z,3.90
2022-11-24T17:50:44.909Z,3.92
2022-11-24T17:53:58.752Z,3.92
2022-11-24T17:57:06.936Z,3.80
2022-11-24T18:00:15.762Z,3.76
2022-11-24T18:03:26.733Z,3.71
2022-11-24T18:06:35.377Z,3.64
2022-11-24T18:09:47.058Z,3.56
2022-11-24T18:13:00.702Z,3.50
2022-11-24T18:16:10.955Z,3.49
2022-11-24T18:19:29.753Z,3.55
2022-11-24T18:23:04.720Z,3.72
2022-11-24T18:26:12.031Z,3.90
2022-11-24T18:29:23.261Z,4.07
2022-11-24T18:32:36.726Z,4.07
2022-11-24T18:35:43.711Z,4.12
2022-11-24T18:38:50.214Z,4.10
2022-11-24T18:42:00.641Z,4.10
2022-11-24T18:45:08.545Z,4.07
2022-11-24T18:48:22.796Z,4.06
2022-11-24T18:51:38.678Z,4.07
2022-11-24T18:54:45.946Z,4.01
2022-11-24T18:58:09.751Z,4.01
2022-11-24T19:01:29.724Z,3.98
2022-11-24T19:04:47.778Z,3.94
2022-11-24T19:08:00.713Z,3.91
2022-11-24T19:11:08.098Z,3.90
2022-11-24T19:14:20.864Z,3.89
2022-11-24T19:17:31.576Z,3.87
2022-11-24T19:20:41.333Z,3.86
2022-11-24T19:23:45.073Z,3.79
2022-11-24T19:27:00.604Z,3.76
2022-11-24T19:30:06.832Z,3.71
2022-11-24T19:33:15.522Z,3.64
2022-11-24T19:36:22.924Z,3.60
2022-11-24T19:39:27.086Z,3.57
2022-11-24T19:42:49.068Z,3.52
2022-11-24T19:45:54.766Z,3.48
2022-11-24T19:49:09.678Z,3.45
2022-11-24T19:52:24.711Z,3.39
2022-11-24T19:55:33.842Z,3.40
2022-11-24T19:58:41.030Z,3.40
2022-11-24T20:01:55.002Z,3.42
2022-11-24T20:05:09.606Z,3.45
2022-11-24T20:08:19.196Z,3.52
2022-11-24T20:11:24.717Z,3.59
2022-11-24T20:14:29.012Z,3.62
2022-11-24T20:17:33.712Z,3.67
2022-11-24T20:20:38.936Z,3.69
2022-11-24T20:23:43.935Z,3.66
2022-11-24T20:26:52.707Z,3.67
2022-11-24T20:30:00.797Z,3.71
2022-11-24T20:33:09.817Z,3.70
2022-11-24T20:36:30.645Z,3.73
2022-11-24T20:39:40.905Z,3.75
2022-11-24T20:42:50.761Z,3.74
2022-11-24T20:46:02.747Z,3.75
2022-11-24T20:49:08.902Z,3.77
2022-11-24T20:52:14.925Z,3.77
2022-11-24T20:55:18.655Z,3.77
2022-11-24T20:58:24.864Z,3.74
2022-11-24T21:01:41.967Z,3.67
2022-11-24T21:04:52.316Z,3.68
2022-11-24T21:08:02.870Z,3.65
2022-11-24T21:11:13.596Z,3.63
2022-11-24T21:14:17.668Z,3.64
2022-11-24T21:17:24.824Z,3.67
2022-11-24T21:20:31.846Z,3.70
2022-11-24T21:23:35.260Z,3.75
2022-11-24T21:26:39.808Z,3.77
2022-11-24T21:29:42.896Z,3.78
2022-11-24T21:32:48.221Z,3.79
2022-11-24T21:35:53.870Z,3.87
2022-11-24T21:39:04.751Z,3.90
2022-11-24T21:42:09.132Z,3.94
2022-11-24T21:45:13.659Z,3.96
2022-11-24T21:48:23.148Z,3.98
2022-11-24T21:51:26.698Z,3.96
2022-11-24T21:54:40.045Z,3.94
2022-11-24T21:57:43.914Z,3.91
2022-11-24T22:00:51.002Z,3.86
2022-11-24T22:03:58.732Z,3.80
2022-11-24T22:07:02.474Z,3.73
2022-11-24T22:10:06.949Z,3.64
2022-11-24T22:13:11.859Z,3.58
2022-11-24T22:16:17.637Z,3.55
2022-11-24T22:19:20.791Z,3.53
2022-11-24T22:22:24.236Z,3.51
2022-11-24T22:25:29.603Z,3.46
2022-11-24T22:28:36.019Z,3.41
2022-11-24T22:31:42.189Z,3.39
2022-11-24T22:34:45.299Z,3.39
2022-11-24T22:37:49.273Z,3.40
2022-11-24T22:40:53.309Z,3.42
2022-11-24T22:43:56.999Z,3.48
2022-11-24T22:47:01.159Z,3.49
2022-11-24T22:50:04.584Z,3.50
2022-11-24T22:53:07.585Z,3.48
2022-11-24T22:56:11.939Z,3.49
2022-11-24T22:59:15.998Z,3.54
2022-11-24T23:02:18.921Z,3.58
2022-11-24T23:05:29.268Z,3.60
2022-11-24T23:08:34.243Z,3.64
2022-11-24T23:11:39.807Z,3.61
2022-11-24T23:14:42.934Z,3.61
2022-11-24T23:17:46.389Z,3.60
2022-11-24T23:20:50.073Z,3.59
2022-11-24T23:24:02.755Z,3.57
2022-11-24T23:27:06.112Z,3.58
2022-11-24T23:30:10.018Z,3.58
2022-11-24T23:33:12.719Z,3.57
2022-11-24T23:36:19.786Z,3.55
2022-11-24T23:39:22.220Z,3.49
2022-11-24T23:42:24.972Z,3.47
2022-11-24T23:45:27.975Z,3.45
2022-11-24T23:48:32.958Z,3.38
2022-11-24T23:51:35.975Z,3.39
2022-11-24T23:54:40.916Z,3.37
2022-11-24T23:57:43.793Z,3.33
